createdAt,value
2022-08-29T00:00:53.185Z,58.84
2022-08-29T00:03:32.530Z,58.90
2022-08-29T00:06:09.085Z,59.01
2022-08-29T00:08:43.268Z,59.02
2022-08-29T00:11:13.886Z,59.09
2022-08-29T00:14:20.924Z,59.14
2022-08-29T00:16:56.835Z,59.21
2022-08-29T00:19:38.513Z,59.23
2022-08-29T00:22:11.970Z,59.37
2022-08-29T00:24:41.915Z,59.40
2022-08-29T00:27:20.079Z,59.50
2022-08-29T00:29:50.829Z,59.60
2022-08-29T00:32:22.278Z,59.66
2022-08-29T00:34:54.000Z,59.67
2022-08-29T00:37:26.164Z,59.71
2022-08-29T00:39:56.441Z,59.79
2022-08-29T00:42:35.758Z,59.91
2022-08-29T00:45:12.036Z,59.91
2022-08-29T00:47:49.379Z,59.93
2022-08-29T00:50:30.389Z,60.00
2022-08-29T00:53:05.660Z,60.05
2022-08-29T00:55:37.846Z,60.12
2022-08-29T00:58:25.824Z,60.23
2022-08-29T01:00:59.082Z,60.26
2022-08-29T01:03:35.549Z,60.38
2022-08-29T01:06:07.659Z,60.44
2022-08-29T01:08:39.723Z,60.43
2022-08-29T01:11:41.235Z,60.49
2022-08-29T01:14:25.267Z,60.47
2022-08-29T01:17:09.024Z,60.43
2022-08-29T01:20:22.179Z,60.32
2022-08-29T01:23:23.658Z,60.59
2022-08-29T01:25:57.252Z,60.61
2022-08-29T01:28:50.751Z,60.72
2022-08-29T01:32:21.043Z,60.66
2022-08-29T01:34:59.978Z,60.87
2022-08-29T01:37:44.230Z,60.93
2022-08-29T01:40:43.413Z,60.94
2022-08-29T01:43:23.014Z,61.17
2022-08-29T01:46:42.652Z,61.20
2022-08-29T01:49:16.037Z,61.19
2022-08-29T01:51:46.343Z,61.15
2022-08-29T01:54:17.571Z,61.18
2022-08-29T01:57:07.600Z,61.24
2022-08-29T01:59:41.542Z,61.51
2022-08-29T02:02:22.858Z,61.76
2022-08-29T02:04:56.841Z,61.78
2022-08-29T02:07:31.079Z,61.85
2022-08-29T02:10:00.235Z,61.93
2022-08-29T02:12:33.423Z,61.97
2022-08-29T02:15:10.630Z,62.09
2022-08-29T02:17:40.582Z,62.21
2022-08-29T02:20:25.265Z,62.20
2022-08-29T02:23:00.404Z,62.27
2022-08-29T02:25:43.453Z,62.31
2022-08-29T02:28:18.800Z,62.44
2022-08-29T02:30:56.908Z,62.46
2022-08-29T02:33:31.531Z,62.58
2022-08-29T02:36:05.727Z,62.57
2022-08-29T02:38:40.444Z,62.44
2022-08-29T02:41:15.681Z,62.61
2022-08-29T02:43:46.853Z,62.68
2022-08-29T02:46:18.948Z,62.88
2022-08-29T02:49:00.429Z,62.91
2022-08-29T02:51:33.205Z,63.00
2022-08-29T02:54:05.056Z,63.21
2022-08-29T02:56:37.046Z,63.04
2022-08-29T02:59:14.613Z,63.03
2022-08-29T03:01:56.535Z,63.08
2022-08-29T03:04:34.664Z,62.96
2022-08-29T03:07:08.401Z,63.03
2022-08-29T03:09:45.768Z,63.06
2022-08-29T03:12:16.945Z,63.09
2022-08-29T03:14:51.453Z,63.07
2022-08-29T03:17:28.066Z,63.01
2022-08-29T03:20:23.794Z,63.18
2022-08-29T03:23:05.040Z,63.31
2022-08-29T03:25:39.177Z,63.38
2022-08-29T03:28:09.096Z,63.38
2022-08-29T03:30:42.382Z,63.46
2022-08-29T03:33:17.031Z,63.25
2022-08-29T03:35:58.117Z,63.34
2022-08-29T03:38:33.702Z,63.08
2022-08-29T03:41:05.223Z,63.26
2022-08-29T03:43:36.501Z,63.38
2022-08-29T03:46:08.136Z,63.12
2022-08-29T03:48:38.831Z,63.10
2022-08-29T03:51:12.499Z,63.14
2022-08-29T03:53:45.289Z,63.33
2022-08-29T03:56:18.921Z,63.34
2022-08-29T03:58:53.434Z,63.31
2022-08-29T04:01:26.726Z,63.47
2022-08-29T04:03:59.849Z,63.60
2022-08-29T04:06:39.099Z,63.36
2022-08-29T04:09:13.853Z,63.48
2022-08-29T04:11:50.271Z,63.60
2022-08-29T04:14:21.633Z,63.55
2022-08-29T04:16:54.175Z,63.56
2022-08-29T04:19:25.486Z,63.50
2022-08-29T04:21:58.216Z,63.53
2022-08-29T04:24:29.359Z,63.62
2022-08-29T04:27:21.462Z,63.72
2022-08-29T04:29:55.891Z,63.47
2022-08-29T04:32:34.182Z,63.69
2022-08-29T04:35:05.615Z,63.69
2022-08-29T04:37:37.103Z,63.54
2022-08-29T04:40:09.629Z,63.67
2022-08-29T04:42:40.211Z,63.89
2022-08-29T04:45:13.822Z,63.90
2022-08-29T04:47:44.118Z,64.15
2022-08-29T04:50:38.419Z,63.94
2022-08-29T04:53:08.061Z,64.03
2022-08-29T04:55:40.541Z,64.13
2022-08-29T04:58:11.645Z,64.06
2022-08-29T05:00:42.502Z,64.26
2022-08-29T05:03:12.784Z,64.08
2022-08-29T05:05:43.846Z,64.12
2022-08-29T05:08:15.680Z,64.13
2022-08-29T05:11:11.052Z,64.29
2022-08-29T05:13:43.320Z,64.41
2022-08-29T05:16:30.283Z,64.38
2022-08-29T05:19:02.897Z,64.54
2022-08-29T05:21:58.511Z,64.68
2022-08-29T05:24:30.039Z,64.77
2022-08-29T05:27:00.337Z,64.80
2022-08-29T05:29:54.337Z,64.67
2022-08-29T05:32:44.428Z,64.88
2022-08-29T05:35:16.122Z,65.20
2022-08-29T05:38:09.154Z,65.09
2022-08-29T05:40:39.515Z,64.79
2022-08-29T05:43:11.511Z,64.67
2022-08-29T05:45:42.254Z,64.93
2022-08-29T05:48:16.933Z,65.17
2022-08-29T05:50:52.335Z,65.43
2022-08-29T05:53:25.084Z,65.19
2022-08-29T05:55:57.183Z,65.08
2022-08-29T05:58:27.283Z,65.26
2022-08-29T06:01:01.355Z,65.16
2022-08-29T06:03:58.050Z,65.15
2022-08-29T06:06:31.793Z,65.03
2022-08-29T06:09:05.692Z,64.88
2022-08-29T06:11:58.813Z,64.97
2022-08-29T06:14:29.683Z,65.25
2022-08-29T06:17:04.968Z,65.41
2022-08-29T06:19:38.600Z,65.15
2022-08-29T06:22:10.021Z,65.25
2022-08-29T06:24:45.801Z,65.21
2022-08-29T06:27:17.247Z,64.90
2022-08-29T06:29:48.278Z,65.00
2022-08-29T06:32:17.718Z,65.01
2022-08-29T06:34:48.723Z,65.08
2022-08-29T06:37:20.531Z,64.82
2022-08-29T06:39:51.406Z,65.06
2022-08-29T06:42:25.675Z,65.23
2022-08-29T06:44:59.471Z,64.91
2022-08-29T06:47:30.514Z,64.85
2022-08-29T06:50:05.784Z,64.75
2022-08-29T06:52:36.479Z,64.97
2022-08-29T06:55:12.757Z,65.15
2022-08-29T06:57:46.519Z,65.46
2022-08-29T07:00:23.716Z,65.24
2022-08-29T07:02:55.144Z,65.26
2022-08-29T07:05:26.062Z,65.20
2022-08-29T07:07:55.283Z,65.18
2022-08-29T07:10:51.821Z,64.95
2022-08-29T07:13:28.181Z,64.61
2022-08-29T07:16:20.214Z,64.95
2022-08-29T07:18:53.924Z,65.05
2022-08-29T07:22:39.374Z,64.70
2022-08-29T07:25:14.761Z,64.63
2022-08-29T07:27:44.623Z,64.67
2022-08-29T07:30:30.482Z,64.98
2022-08-29T07:33:04.023Z,64.49
2022-08-29T07:35:34.593Z,64.74
2022-08-29T07:38:07.646Z,64.58
2022-08-29T07:40:37.124Z,64.72
2022-08-29T07:43:08.885Z,64.39
2022-08-29T07:45:41.601Z,64.54
2022-08-29T07:48:19.899Z,64.40
2022-08-29T07:51:00.571Z,64.23
2022-08-29T07:53:32.061Z,63.61
2022-08-29T07:56:08.920Z,63.90
2022-08-29T07:58:40.197Z,63.36
2022-08-29T08:01:21.199Z,62.96
2022-08-29T08:03:52.831Z,63.79
2022-08-29T08:06:27.875Z,63.26
2022-08-29T08:09:01.941Z,63.10
2022-08-29T08:11:33.723Z,62.26
2022-08-29T08:14:04.663Z,61.34
2022-08-29T08:16:35.443Z,59.80
2022-08-29T08:19:07.422Z,59.00
2022-08-29T08:21:46.932Z,59.83
2022-08-29T08:24:21.213Z,59.49
2022-08-29T08:26:51.019Z,59.30
2022-08-29T08:29:21.381Z,59.66
2022-08-29T08:32:06.071Z,59.18
2022-08-29T08:34:39.711Z,59.44
2022-08-29T08:37:11.204Z,59.72
2022-08-29T08:39:47.194Z,60.48
2022-08-29T08:42:36.949Z,60.86
2022-08-29T08:45:17.153Z,60.37
2022-08-29T08:48:11.912Z,60.44
2022-08-29T08:50:43.257Z,60.87
2022-08-29T08:53:29.411Z,61.07
2022-08-29T08:56:05.974Z,61.38
2022-08-29T08:58:42.185Z,60.83
2022-08-29T09:01:46.987Z,60.92
2022-08-29T09:05:20.064Z,60.62
2022-08-29T09:08:43.708Z,61.47
2022-08-29T09:11:42.757Z,61.33
2022-08-29T09:14:43.704Z,61.39
2022-08-29T09:17:36.489Z,61.08
2022-08-29T09:20:34.261Z,61.24
2022-08-29T09:23:13.715Z,61.76
2022-08-29T09:25:46.735Z,61.59
2022-08-29T09:31:34.820Z,61.30
2022-08-29T09:34:57.394Z,60.95
2022-08-29T09:37:37.340Z,61.40
2022-08-29T09:40:37.372Z,61.57
2022-08-29T09:43:12.066Z,61.74
2022-08-29T09:46:11.521Z,60.96
2022-08-29T09:48:45.807Z,59.09
2022-08-29T09:51:26.000Z,59.04
2022-08-29T09:54:12.816Z,57.36
2022-08-29T09:57:28.310Z,56.99
2022-08-29T10:04:38.026Z,58.93
2022-08-29T10:07:24.327Z,58.35
2022-08-29T10:09:58.149Z,56.60
2022-08-29T10:12:35.100Z,56.89
2022-08-29T10:15:19.670Z,57.54
2022-08-29T10:18:39.131Z,56.88
2022-08-29T10:25:38.814Z,55.82
2022-08-29T10:28:32.266Z,54.97
2022-08-29T10:31:02.525Z,55.08
2022-08-29T10:33:44.182Z,55.41
2022-08-29T10:36:26.778Z,56.43
2022-08-29T10:39:12.820Z,55.47
2022-08-29T10:42:06.406Z,55.76
2022-08-29T10:45:16.053Z,55.17
2022-08-29T10:48:07.872Z,54.33
2022-08-29T10:51:18.303Z,54.70
2022-08-29T10:53:55.529Z,54.84
2022-08-29T10:56:31.283Z,54.74
2022-08-29T10:59:29.247Z,53.59
2022-08-29T11:02:19.756Z,53.22
2022-08-29T11:04:57.476Z,53.13
2022-08-29T11:07:36.017Z,53.38
2022-08-29T11:10:31.699Z,52.71
2022-08-29T11:13:11.499Z,52.85
2022-08-29T11:16:14.519Z,52.66
2022-08-29T11:18:55.721Z,52.30
2022-08-29T11:21:28.346Z,51.67
2022-08-29T11:24:04.465Z,51.91
2022-08-29T11:27:04.138Z,51.78
2022-08-29T11:29:40.406Z,51.08
2022-08-29T11:32:22.478Z,50.67
2022-08-29T11:35:28.322Z,51.24
2022-08-29T11:38:36.971Z,51.39
2022-08-29T11:41:32.447Z,51.20
2022-08-29T11:44:20.124Z,50.85
2022-08-29T11:46:56.750Z,50.35
2022-08-29T11:49:39.703Z,49.99
2022-08-29T11:52:13.803Z,50.12
2022-08-29T11:55:23.219Z,49.69
2022-08-29T11:58:05.193Z,49.44
2022-08-29T12:00:44.510Z,49.77
2022-08-29T12:06:47.274Z,50.09
2022-08-29T12:09:27.375Z,49.50
2022-08-29T12:15:34.517Z,48.97
2022-08-29T12:18:36.627Z,49.02
2022-08-29T12:21:31.056Z,48.58
2022-08-29T12:24:04.065Z,49.01
2022-08-29T12:26:48.001Z,48.95
2022-08-29T12:29:43.572Z,48.90
2022-08-29T12:32:22.907Z,48.40
2022-08-29T12:35:13.149Z,48.47
2022-08-29T12:38:26.077Z,47.66
2022-08-29T12:41:27.057Z,48.40
2022-08-29T12:44:00.615Z,48.33
2022-08-29T12:46:40.681Z,48.41
2022-08-29T12:49:23.547Z,48.31
2022-08-29T12:52:22.459Z,48.12
2022-08-29T12:54:56.455Z,47.44
2022-08-29T12:57:36.109Z,47.77
2022-08-29T13:00:12.771Z,47.72
2022-08-29T13:03:00.987Z,47.02
2022-08-29T13:05:33.392Z,47.35
2022-08-29T13:08:13.073Z,47.72
2022-08-29T13:10:59.541Z,47.30
2022-08-29T13:13:32.368Z,47.40
2022-08-29T13:16:06.700Z,47.15
2022-08-29T13:18:53.598Z,47.30
2022-08-29T13:22:41.901Z,47.60
2022-08-29T13:25:13.660Z,47.05
2022-08-29T13:27:43.217Z,46.96
2022-08-29T13:30:24.126Z,46.94
2022-08-29T13:32:59.050Z,47.15
2022-08-29T13:35:34.265Z,46.32
2022-08-29T13:38:30.596Z,46.59
2022-08-29T13:41:02.154Z,46.66
2022-08-29T13:43:44.615Z,46.79
2022-08-29T13:46:27.810Z,46.78
2022-08-29T13:49:03.604Z,46.67
2022-08-29T13:51:35.347Z,46.94
2022-08-29T13:54:06.612Z,46.86
2022-08-29T13:59:13.540Z,46.57
2022-08-29T14:04:39.809Z,46.41
2022-08-29T14:07:14.519Z,46.61
2022-08-29T14:09:46.103Z,46.28
2022-08-29T14:12:17.455Z,46.43
2022-08-29T14:14:50.179Z,46.21
2022-08-29T14:17:23.560Z,46.21
2022-08-29T14:19:54.392Z,46.28
2022-08-29T14:22:25.129Z,46.51
2022-08-29T14:24:56.254Z,46.41
2022-08-29T14:27:26.236Z,46.42
2022-08-29T14:29:56.043Z,45.93
2022-08-29T14:32:27.280Z,46.22
2022-08-29T14:34:59.761Z,46.03
2022-08-29T14:37:29.333Z,46.27
2022-08-29T14:40:01.726Z,45.96
2022-08-29T14:42:33.822Z,46.24
2022-08-29T14:45:06.044Z,45.98
2022-08-29T14:47:35.353Z,46.31
2022-08-29T14:50:09.852Z,46.61
2022-08-29T14:53:00.920Z,46.67
2022-08-29T14:55:34.186Z,46.45
2022-08-29T14:58:06.563Z,46.25
2022-08-29T15:00:38.487Z,46.28
2022-08-29T15:03:09.461Z,46.42
2022-08-29T15:05:39.559Z,46.37
2022-08-29T15:08:15.496Z,46.68
2022-08-29T15:10:47.455Z,46.98
2022-08-29T15:13:18.073Z,46.83
2022-08-29T15:15:49.448Z,46.69
2022-08-29T15:18:59.518Z,46.93
2022-08-29T15:25:30.283Z,47.26
2022-08-29T15:28:21.865Z,47.04
2022-08-29T15:30:52.816Z,46.92
2022-08-29T15:33:23.547Z,47.11
2022-08-29T15:35:52.987Z,47.46
2022-08-29T15:38:24.248Z,47.70
2022-08-29T15:40:54.213Z,47.50
2022-08-29T15:43:41.388Z,47.08
2022-08-29T15:46:16.245Z,47.17
2022-08-29T15:48:53.064Z,47.24
2022-08-29T15:51:24.562Z,47.45
2022-08-29T15:53:56.398Z,47.50
2022-08-29T15:56:35.508Z,47.67
2022-08-29T15:59:07.361Z,47.67
2022-08-29T16:01:52.414Z,47.80
2022-08-29T16:04:25.144Z,47.67
2022-08-29T16:06:55.852Z,47.88
2022-08-29T16:09:34.034Z,47.79
2022-08-29T16:12:17.078Z,47.76
2022-08-29T16:15:09.797Z,47.85
2022-08-29T16:17:41.412Z,47.85
2022-08-29T16:20:41.781Z,47.94
2022-08-29T16:27:06.055Z,48.23
2022-08-29T16:29:40.018Z,48.25
2022-08-29T16:32:10.315Z,48.42
2022-08-29T16:34:41.254Z,48.45
2022-08-29T16:37:58.499Z,48.47
2022-08-29T16:40:57.933Z,48.56
2022-08-29T16:43:32.670Z,48.90
2022-08-29T16:46:11.133Z,48.80
2022-08-29T16:48:41.392Z,48.75
2022-08-29T16:51:13.513Z,49.09
2022-08-29T16:56:35.011Z,49.13
2022-08-29T16:59:04.688Z,49.22
2022-08-29T17:01:47.723Z,49.18
2022-08-29T17:04:41.805Z,49.31
2022-08-29T17:07:15.786Z,49.51
2022-08-29T17:10:10.568Z,49.52
2022-08-29T17:12:40.087Z,49.56
2022-08-29T17:15:09.610Z,49.75
2022-08-29T17:17:41.002Z,49.82
2022-08-29T17:20:58.884Z,49.82
2022-08-29T17:24:16.056Z,50.10
2022-08-29T17:27:21.285Z,50.49
2022-08-29T17:34:22.058Z,50.64
2022-08-29T17:37:06.282Z,50.80
2022-08-29T17:39:44.841Z,50.96
2022-08-29T17:42:16.835Z,51.11
2022-08-29T17:44:54.050Z,51.17
2022-08-29T17:47:27.456Z,51.40
2022-08-29T17:50:07.632Z,51.45
2022-08-29T17:52:45.624Z,51.54
2022-08-29T17:55:16.032Z,51.82
2022-08-29T17:57:45.555Z,51.83
2022-08-29T18:07:49.073Z,52.25
2022-08-29T18:10:42.883Z,52.49
2022-08-29T18:13:16.665Z,52.41
2022-08-29T18:16:06.442Z,52.68
2022-08-29T18:19:24.254Z,52.76
2022-08-29T18:22:48.986Z,53.02
2022-08-29T18:26:03.831Z,53.07
2022-08-29T18:29:07.740Z,53.26
2022-08-29T18:31:38.731Z,53.39
2022-08-29T18:34:10.151Z,53.36
2022-08-29T18:37:13.011Z,53.39
2022-08-29T18:39:48.537Z,53.65
2022-08-29T18:42:38.751Z,53.76
2022-08-29T18:45:20.854Z,53.82
2022-08-29T18:48:54.384Z,53.87
2022-08-29T18:54:46.518Z,54.11
2022-08-29T18:57:19.991Z,54.34
2022-08-29T18:59:50.267Z,54.44
2022-08-29T19:02:21.214Z,54.55
2022-08-29T19:04:51.301Z,54.77
2022-08-29T19:07:24.466Z,54.91
2022-08-29T19:13:31.429Z,55.27
2022-08-29T19:19:25.454Z,55.47
2022-08-29T19:21:59.703Z,55.55
2022-08-29T19:24:34.122Z,55.74
2022-08-29T19:27:05.032Z,55.85
2022-08-29T19:30:08.612Z,55.97
2022-08-29T19:32:49.623Z,55.95
2022-08-29T19:38:49.826Z,56.23
2022-08-29T19:45:25.693Z,56.49
2022-08-29T19:47:55.903Z,56.64
2022-08-29T19:54:30.255Z,56.96
2022-08-29T19:57:04.269Z,56.99
2022-08-29T19:59:36.359Z,57.12
2022-08-29T20:02:10.583Z,57.18
2022-08-29T20:04:41.991Z,57.28
2022-08-29T20:07:20.157Z,57.35
2022-08-29T20:09:50.855Z,57.47
2022-08-29T20:12:21.382Z,57.73
2022-08-29T20:15:39.676Z,57.70
2022-08-29T20:18:26.117Z,57.75
2022-08-29T20:25:34.544Z,58.19
2022-08-29T20:32:41.552Z,58.42
2022-08-29T20:35:14.256Z,58.40
2022-08-29T20:37:45.827Z,58.41
2022-08-29T20:40:47.139Z,58.36
2022-08-29T20:43:20.170Z,58.55
2022-08-29T20:45:50.450Z,58.78
2022-08-29T20:48:21.202Z,58.87
2022-08-29T20:51:04.920Z,59.17
2022-08-29T20:53:36.257Z,59.23
2022-08-29T20:56:10.138Z,59.13
2022-08-29T20:59:05.198Z,59.38
2022-08-29T21:02:22.308Z,59.36
2022-08-29T21:05:48.916Z,59.24
2022-08-29T21:08:51.764Z,59.35
2022-08-29T21:11:24.885Z,59.46
2022-08-29T21:17:49.224Z,59.86
2022-08-29T21:20:53.959Z,59.82
2022-08-29T21:23:26.257Z,59.88
2022-08-29T21:25:57.349Z,59.97
2022-08-29T21:28:32.180Z,60.17
2022-08-29T21:31:07.790Z,60.33
2022-08-29T21:33:39.726Z,60.34
2022-08-29T21:36:14.706Z,60.53
2022-08-29T21:40:00.845Z,60.66
2022-08-29T21:42:33.271Z,60.91
2022-08-29T21:45:09.744Z,60.82
2022-08-29T21:47:40.624Z,60.88
2022-08-29T21:50:14.031Z,61.07
2022-08-29T21:53:06.749Z,61.14
2022-08-29T21:55:37.993Z,61.25
2022-08-29T21:58:08.398Z,61.26
2022-08-29T22:00:42.429Z,61.39
2022-08-29T22:03:16.170Z,61.31
2022-08-29T22:05:47.468Z,61.47
2022-08-29T22:08:22.367Z,61.64
2022-08-29T22:10:53.435Z,61.78
2022-08-29T22:13:23.816Z,61.85
2022-08-29T22:16:15.146Z,61.86
2022-08-29T22:19:14.928Z,61.74
2022-08-29T22:21:56.261Z,61.91
2022-08-29T22:24:30.438Z,62.15
2022-08-29T22:27:05.128Z,62.05
2022-08-29T22:29:35.597Z,62.06
2022-08-29T22:32:09.242Z,62.09
2022-08-29T22:34:42.766Z,62.20
2022-08-29T22:37:14.503Z,62.37
2022-08-29T22:39:44.334Z,62.33
2022-08-29T22:42:28.649Z,62.30
2022-08-29T22:45:04.339Z,62.49
2022-08-29T22:48:06.247Z,62.54
2022-08-29T22:50:39.410Z,62.58
2022-08-29T22:53:10.324Z,62.67
2022-08-29T22:55:40.923Z,62.67
2022-08-29T22:58:12.966Z,62.68
2022-08-29T23:00:42.565Z,62.74
2022-08-29T23:03:13.061Z,62.92
2022-08-29T23:05:46.596Z,63.03
2022-08-29T23:08:50.822Z,63.40
2022-08-29T23:11:26.048Z,63.43
2022-08-29T23:13:59.074Z,63.31
2022-08-29T23:16:33.596Z,63.50
2022-08-29T23:19:05.381Z,63.55
2022-08-29T23:21:39.639Z,63.68
2022-08-29T23:24:14.107Z,63.89
2022-08-29T23:26:45.829Z,63.68
2022-08-29T23:29:16.660Z,63.89
2022-08-29T23:31:47.923Z,63.94
2022-08-29T23:34:18.894Z,63.77
2022-08-29T23:36:49.104Z,63.75
2022-08-29T23:39:24.435Z,63.73
2022-08-29T23:41:56.577Z,63.80
2022-08-29T23:44:26.583Z,63.91
2022-08-29T23:47:02.133Z,63.95
2022-08-29T23:49:34.778Z,63.89
2022-08-29T23:52:05.701Z,63.82
2022-08-29T23:54:39.232Z,64.05
2022-08-29T23:57:08.935Z,63.84
2022-08-29T23:59:59.397Z,63.96
